Time;durP1;ratioP1;P1;durP2;ratioP2;P2;SDS_P1;SDS_P2;PMS_P1;PMS_P2;Temp;Humidity;BMP_temperature;BMP_pressure;BME280_temperature;BME280_humidity;BME280_pressure;Samples;Min_cycle;Max_cycle;Signal;HPM_P1;HPM_P2
2022/06/30 00:00:34;;;;;;;6.13;4.00;;;22.20;99.90;;;;;;4996070;28;20625;-75
2022/06/30 00:02:59;;;;;;;12.40;10.70;;;22.20;99.90;;;;;;4980288;28;20276;-74
2022/06/30 00:05:25;;;;;;;8.23;6.45;;;22.10;99.90;;;;;;4973765;28;20215;-75
2022/06/30 00:07:51;;;;;;;5.50;4.47;;;22.20;99.90;;;;;;4991424;28;20210;-74
2022/06/30 00:10:17;;;;;;;4.60;3.45;;;22.20;99.90;;;;;;5011966;23;20310;-84
2022/06/30 00:12:42;;;;;;;4.00;3.17;;;22.20;99.90;;;;;;5046616;28;20190;-81
2022/06/30 00:15:09;;;;;;;4.55;3.00;;;22.20;99.90;;;;;;5048772;28;20176;-81
2022/06/30 00:17:35;;;;;;;3.83;3.30;;;22.10;99.90;;;;;;5067094;28;20216;-81
2022/06/30 00:20:00;;;;;;;5.07;3.40;;;22.10;99.90;;;;;;5066204;28;20216;-79
2022/06/30 00:22:26;;;;;;;10.50;9.43;;;22.00;99.90;;;;;;5062659;28;20207;-80
2022/06/30 00:24:52;;;;;;;6.57;4.40;;;22.00;99.90;;;;;;5062991;28;20536;-79
2022/06/30 00:27:18;;;;;;;7.97;5.00;;;22.00;99.90;;;;;;5062098;28;20176;-79
2022/06/30 00:29:44;;;;;;;7.72;5.13;;;21.90;99.90;;;;;;5056161;28;20208;-79
2022/06/30 00:32:10;;;;;;;5.32;3.85;;;21.90;99.90;;;;;;5040455;28;20758;-79
2022/06/30 00:34:35;;;;;;;5.90;3.20;;;21.90;99.90;;;;;;5039860;28;20204;-79
2022/06/30 00:37:01;;;;;;;6.18;4.30;;;21.90;99.90;;;;;;5057104;28;20226;-79
2022/06/30 00:39:27;;;;;;;5.85;4.28;;;21.80;99.90;;;;;;5057503;28;20261;-79
2022/06/30 00:41:54;;;;;;;6.68;3.72;;;21.80;99.90;;;;;;5057636;28;20208;-79
2022/06/30 00:44:20;;;;;;;5.38;3.92;;;21.80;99.90;;;;;;5057100;28;20261;-79
2022/06/30 00:46:45;;;;;;;7.88;4.38;;;21.70;99.90;;;;;;5039653;28;20207;-80
2022/06/30 00:49:11;;;;;;;7.47;3.70;;;21.70;99.90;;;;;;5043114;28;20208;-80
2022/06/30 00:51:36;;;;;;;5.97;4.47;;;21.70;99.90;;;;;;5061839;28;20203;-79
2022/06/30 00:54:04;;;;;;;6.82;4.57;;;21.70;99.90;;;;;;5060989;28;20203;-79
2022/06/30 00:56:31;;;;;;;6.72;3.90;;;21.80;99.90;;;;;;5041536;28;20203;-80
2022/06/30 00:59:02;;;;;;;7.18;3.42;;;21.80;99.90;;;;;;5058052;28;20280;-80
2022/06/30 01:01:30;;;;;;;5.35;3.47;;;21.80;99.90;;;;;;5058200;28;20211;-80
2022/06/30 01:03:56;;;;;;;7.68;3.60;;;21.80;99.90;;;;;;5040794;28;20171;-80
2022/06/30 01:06:22;;;;;;;4.93;4.07;;;21.80;99.90;;;;;;5057989;28;20527;-82
2022/06/30 01:08:49;;;;;;;5.80;3.70;;;21.90;99.90;;;;;;5057360;28;20211;-80
2022/06/30 01:14:03;;;;;;;7.07;4.57;;;21.80;99.90;;;;;;5057116;28;20215;-80
2022/06/30 01:16:29;;;;;;;13.18;8.68;;;21.70;99.90;;;;;;5056013;28;20211;-80
2022/06/30 01:18:55;;;;;;;26.20;17.13;;;21.70;99.90;;;;;;5038271;28;20200;-80
2022/06/30 01:21:20;;;;;;;20.88;11.60;;;21.80;99.90;;;;;;5056593;28;20263;-81
2022/06/30 01:23:46;;;;;;;11.82;7.47;;;21.80;99.90;;;;;;5056058;28;20290;-81
2022/06/30 01:26:12;;;;;;;13.80;10.25;;;21.70;99.90;;;;;;5054383;28;20253;-81
2022/06/30 01:28:38;;;;;;;8.55;5.35;;;21.70;99.90;;;;;;5039164;28;20215;-80
2022/06/30 01:31:03;;;;;;;14.23;9.95;;;21.70;99.90;;;;;;5056375;28;20216;-80
2022/06/30 01:33:29;;;;;;;7.38;5.75;;;21.70;99.90;;;;;;5039642;28;20275;-80
2022/06/30 01:35:56;;;;;;;5.78;4.13;;;21.70;99.90;;;;;;5039024;28;20234;-80
2022/06/30 01:38:22;;;;;;;6.18;4.65;;;21.70;99.90;;;;;;5057581;28;20215;-80
2022/06/30 01:40:48;;;;;;;9.73;4.80;;;21.80;99.90;;;;;;5066201;28;20210;-79
2022/06/30 01:43:13;;;;;;;8.02;4.60;;;21.80;99.90;;;;;;5051961;28;20286;-81
2022/06/30 01:45:40;;;;;;;13.68;9.30;;;21.80;99.90;;;;;;5065435;28;20180;-81
2022/06/30 01:48:07;;;;;;;24.85;17.98;;;21.70;99.90;;;;;;5065231;28;20730;-80
2022/06/30 01:50:33;;;;;;;25.08;18.65;;;21.80;99.90;;;;;;5039635;28;20223;-81
2022/06/30 01:52:59;;;;;;;8.90;7.95;;;21.80;99.90;;;;;;5038631;28;20215;-80
2022/06/30 01:55:26;;;;;;;10.65;7.07;;;21.90;99.90;;;;;;5055016;28;20257;-80
2022/06/30 01:57:52;;;;;;;7.43;5.05;;;21.90;99.90;;;;;;5035421;28;20253;-81
2022/06/30 02:00:20;;;;;;;8.48;5.82;;;21.80;99.90;;;;;;5051861;28;20234;-81
2022/06/30 02:02:48;;;;;;;6.38;5.28;;;21.80;99.90;;;;;;5048018;28;20207;-80
2022/06/30 02:05:14;;;;;;;6.22;4.72;;;21.90;99.90;;;;;;5054335;28;20215;-81
2022/06/30 02:07:40;;;;;;;8.63;5.15;;;21.80;99.90;;;;;;5050408;28;20218;-82
2022/06/30 02:10:09;;;;;;;7.78;4.22;;;21.80;99.90;;;;;;5064432;28;20266;-81
2022/06/30 02:12:47;;;;;;;6.75;5.60;;;21.80;99.90;;;;;;5037884;28;20190;-82
2022/06/30 02:15:23;;;;;;;13.13;9.98;;;21.70;99.90;;;;;;5056075;28;20734;-81
2022/06/30 02:17:51;;;;;;;14.88;11.15;;;21.80;99.90;;;;;;5047441;28;20223;-80
2022/06/30 02:20:21;;;;;;;7.97;4.68;;;21.80;99.90;;;;;;5037541;28;20204;-79
2022/06/30 02:22:48;;;;;;;5.60;4.63;;;21.80;99.90;;;;;;5055855;28;20199;-81
2022/06/30 02:25:14;;;;;;;7.80;5.05;;;21.80;99.90;;;;;;5056112;28;20287;-81
2022/06/30 02:27:40;;;;;;;7.85;4.13;;;21.90;99.90;;;;;;5056438;28;20182;-80
2022/06/30 02:30:06;;;;;;;4.45;3.60;;;21.80;99.90;;;;;;5053131;28;20263;-82
2022/06/30 02:32:32;;;;;;;4.75;3.88;;;21.90;99.90;;;;;;5060108;28;20219;-82
2022/06/30 02:34:58;;;;;;;6.22;4.35;;;21.90;99.90;;;;;;5056697;28;20215;-83
2022/06/30 02:37:24;;;;;;;6.47;4.57;;;21.80;99.90;;;;;;5073343;28;20238;-82
2022/06/30 02:39:50;;;;;;;5.63;3.53;;;21.80;99.90;;;;;;5063657;28;20195;-81
2022/06/30 02:42:15;;;;;;;4.97;3.55;;;21.80;99.90;;;;;;5061822;28;20552;-81
2022/06/30 02:44:41;;;;;;;4.63;3.97;;;21.80;99.90;;;;;;5035914;28;20278;-81
2022/06/30 02:47:07;;;;;;;6.75;4.22;;;21.70;99.90;;;;;;5036759;28;20212;-82
2022/06/30 02:49:32;;;;;;;8.27;3.92;;;21.70;99.90;;;;;;5042863;28;20706;-80
2022/06/30 02:51:58;;;;;;;8.85;6.82;;;21.60;99.90;;;;;;5040046;28;20207;-82
2022/06/30 02:54:23;;;;;;;4.60;3.65;;;21.60;99.90;;;;;;5040613;28;20183;-82
2022/06/30 02:56:49;;;;;;;5.90;3.67;;;21.60;99.90;;;;;;5041957;28;20688;-81
2022/06/30 02:59:16;;;;;;;4.55;3.63;;;21.60;99.90;;;;;;5038594;28;20288;-81
2022/06/30 03:01:42;;;;;;;5.50;4.88;;;21.60;99.90;;;;;;5042461;28;20579;-83
2022/06/30 03:04:07;;;;;;;5.07;4.10;;;21.60;99.90;;;;;;5053812;28;20242;-81
2022/06/30 03:06:34;;;;;;;5.88;3.78;;;21.60;99.90;;;;;;5039762;28;20172;-79
2022/06/30 03:09:01;;;;;;;4.80;3.58;;;21.50;99.90;;;;;;5054973;28;20212;-81
2022/06/30 03:11:27;;;;;;;7.63;4.95;;;21.50;99.90;;;;;;5048347;28;20224;-80
2022/06/30 03:13:53;;;;;;;8.95;4.82;;;21.50;99.90;;;;;;5038992;28;20240;-80
2022/06/30 03:16:19;;;;;;;7.78;4.22;;;21.50;99.90;;;;;;5049483;28;20257;-80
2022/06/30 03:18:44;;;;;;;8.82;4.50;;;21.50;99.90;;;;;;5049227;28;20198;-80
2022/06/30 03:21:10;;;;;;;4.88;3.90;;;21.50;99.90;;;;;;5046521;28;20255;-80
2022/06/30 03:23:36;;;;;;;5.80;4.03;;;21.50;99.90;;;;;;5041676;28;20228;-80
2022/06/30 03:26:02;;;;;;;8.75;6.10;;;21.50;99.90;;;;;;5054155;28;20215;-79
2022/06/30 03:28:28;;;;;;;7.32;5.53;;;21.50;99.90;;;;;;5055585;28;20605;-79
2022/06/30 03:30:54;;;;;;;9.27;5.45;;;21.50;99.90;;;;;;5035162;28;20202;-78
2022/06/30 03:33:19;;;;;;;5.82;4.00;;;21.50;99.90;;;;;;5037841;28;20256;-79
2022/06/30 03:35:46;;;;;;;7.25;5.05;;;21.50;99.90;;;;;;5048735;28;20204;-79
2022/06/30 03:38:13;;;;;;;7.90;4.38;;;21.50;99.90;;;;;;5049582;28;20664;-79
2022/06/30 03:40:39;;;;;;;5.72;4.30;;;21.50;99.90;;;;;;5055539;28;20226;-79
2022/06/30 03:43:05;;;;;;;6.07;4.78;;;21.50;99.90;;;;;;5050343;28;20212;-79
2022/06/30 03:45:31;;;;;;;9.35;7.85;;;21.60;99.90;;;;;;5035461;28;20223;-79
2022/06/30 03:48:03;;;;;;;6.30;5.30;;;21.70;99.90;;;;;;5051586;28;20219;-80
2022/06/30 03:50:30;;;;;;;6.13;3.80;;;21.80;99.90;;;;;;5055965;28;20316;-80
2022/06/30 03:52:56;;;;;;;5.70;4.32;;;21.80;99.90;;;;;;5040936;28;20204;-81
2022/06/30 03:55:22;;;;;;;5.00;4.05;;;21.90;99.90;;;;;;5040212;28;20216;-81
2022/06/30 03:57:47;;;;;;;6.25;4.00;;;22.00;99.90;;;;;;5041667;28;20216;-80
2022/06/30 04:00:13;;;;;;;3.63;3.30;;;22.10;99.90;;;;;;5041442;28;20196;-81
2022/06/30 04:02:39;;;;;;;5.47;3.85;;;22.20;99.90;;;;;;5041200;28;20283;-80
2022/06/30 04:05:06;;;;;;;4.05;3.38;;;22.20;99.90;;;;;;5040253;28;20212;-81
2022/06/30 04:07:31;;;;;;;7.28;3.33;;;22.20;99.90;;;;;;5048792;28;20204;-81
2022/06/30 04:09:57;;;;;;;5.18;3.13;;;22.40;99.90;;;;;;5038292;28;20321;-82
2022/06/30 04:12:23;;;;;;;4.30;3.38;;;22.50;99.90;;;;;;5042890;28;20199;-82
2022/06/30 04:14:48;;;;;;;6.57;3.42;;;22.70;99.90;;;;;;5038654;28;20232;-82
2022/06/30 04:17:14;;;;;;;5.88;4.43;;;22.50;99.90;;;;;;5039305;28;20215;-81
2022/06/30 04:19:39;;;;;;;5.78;4.18;;;22.40;99.90;;;;;;5040883;28;20239;-81
2022/06/30 04:22:06;;;;;;;4.85;3.55;;;22.40;99.90;;;;;;5040440;28;20212;-82
2022/06/30 04:24:31;;;;;;;6.13;4.22;;;22.40;99.90;;;;;;5042605;28;20191;-83
2022/06/30 04:26:57;;;;;;;7.50;4.30;;;22.50;99.90;;;;;;5048259;28;20208;-82
2022/06/30 04:29:22;;;;;;;5.32;3.42;;;22.50;99.90;;;;;;5038696;28;20228;-79
2022/06/30 04:34:32;;;;;;;4.18;3.78;;;22.40;99.90;;;;;;5041779;28;20366;-81
2022/06/30 04:36:58;;;;;;;10.88;4.50;;;22.50;99.90;;;;;;5055878;28;20215;-81
2022/06/30 04:39:23;;;;;;;7.50;4.13;;;22.40;99.90;;;;;;5057903;28;20679;-78
2022/06/30 04:41:49;;;;;;;9.98;5.25;;;22.40;99.90;;;;;;5042509;28;20343;-81
2022/06/30 04:44:15;;;;;;;7.53;4.57;;;22.40;99.90;;;;;;5054738;28;20208;-83
2022/06/30 04:46:40;;;;;;;4.45;3.95;;;22.40;99.90;;;;;;5053656;28;20216;-81
2022/06/30 04:49:07;;;;;;;10.00;7.60;;;22.60;99.90;;;;;;5048443;28;20227;-82
2022/06/30 04:51:33;;;;;;;7.75;5.03;;;22.70;99.90;;;;;;5046867;28;20207;-81
2022/06/30 04:53:58;;;;;;;7.88;4.97;;;22.90;99.90;;;;;;5045316;28;20219;-81
2022/06/30 04:56:24;;;;;;;6.60;4.55;;;23.20;99.90;;;;;;5042654;28;20219;-83
2022/06/30 04:58:50;;;;;;;7.40;4.38;;;23.40;99.90;;;;;;5053132;28;20244;-81
2022/06/30 05:01:15;;;;;;;7.78;4.55;;;23.70;99.90;;;;;;5063785;28;20211;-82
2022/06/30 05:03:41;;;;;;;4.85;3.40;;;25.50;99.90;;;;;;5056868;28;20602;-82
2022/06/30 05:06:07;;;;;;;6.65;3.95;;;26.20;99.90;;;;;;5048628;28;20180;-83
2022/06/30 05:08:33;;;;;;;5.03;4.10;;;25.70;99.90;;;;;;5051183;28;20200;-82
2022/06/30 05:10:59;;;;;;;5.68;3.95;;;24.80;99.90;;;;;;5057090;28;20302;-81
2022/06/30 05:13:25;;;;;;;7.47;4.07;;;24.40;99.90;;;;;;5053676;28;20215;-80
2022/06/30 05:15:50;;;;;;;4.88;4.03;;;24.30;99.90;;;;;;5062892;28;20187;-81
2022/06/30 05:18:16;;;;;;;9.48;4.30;;;24.20;99.90;;;;;;5054394;28;20219;-81
2022/06/30 05:20:42;;;;;;;4.25;3.70;;;24.00;99.90;;;;;;5044121;28;20211;-81
2022/06/30 05:23:08;;;;;;;4.93;3.70;;;23.90;99.90;;;;;;5054559;28;20211;-81
2022/06/30 05:28:21;;;;;;;8.75;3.65;;;24.00;99.90;;;;;;5056995;28;20699;-81
2022/06/30 05:30:47;;;;;;;6.68;4.18;;;24.30;99.90;;;;;;5033626;28;20192;-82
2022/06/30 05:33:13;;;;;;;6.00;4.53;;;24.30;99.90;;;;;;5049919;28;20220;-81
2022/06/30 05:35:40;;;;;;;7.70;4.07;;;24.50;99.90;;;;;;5045601;28;20203;-81
2022/06/30 05:38:06;;;;;;;5.97;4.10;;;24.60;99.90;;;;;;5048790;28;20247;-80
2022/06/30 05:40:31;;;;;;;6.40;4.07;;;24.70;99.90;;;;;;5051410;28;20711;-79
2022/06/30 05:42:57;;;;;;;7.47;3.83;;;25.00;99.90;;;;;;5048856;28;20183;-80
2022/06/30 05:45:22;;;;;;;7.40;3.60;;;26.20;99.90;;;;;;5037938;28;20573;-80
2022/06/30 05:47:50;;;;;;;7.93;4.07;;;26.60;99.90;;;;;;5047786;28;20704;-81
2022/06/30 05:50:16;;;;;;;4.68;3.78;;;26.80;99.90;;;;;;5057898;28;20269;-80
2022/06/30 05:52:43;;;;;;;4.00;3.45;;;26.90;99.90;;;;;;5040431;28;20219;-81
2022/06/30 05:55:10;;;;;;;5.43;3.47;;;27.20;99.90;;;;;;5059196;28;20207;-82
2022/06/30 05:57:52;;;;;;;4.55;3.83;;;27.70;99.90;;;;;;5039231;28;20184;-81
2022/06/30 06:00:19;;;;;;;7.10;3.97;;;28.70;99.90;;;;;;5048413;28;20290;-82
2022/06/30 06:02:45;;;;;;;5.25;3.33;;;29.40;99.90;;;;;;5047842;28;20579;-82
2022/06/30 06:05:11;;;;;;;5.93;3.90;;;29.60;99.90;;;;;;5053916;28;20208;-82
2022/06/30 06:07:36;;;;;;;4.57;3.42;;;30.70;99.90;;;;;;5050479;28;20283;-82
2022/06/30 06:10:02;;;;;;;5.15;3.63;;;30.60;99.90;;;;;;5040367;28;20762;-82
2022/06/30 06:12:27;;;;;;;9.80;4.65;;;30.10;99.90;;;;;;5043020;23;20239;-70
2022/06/30 06:14:54;;;;;;;5.05;4.07;;;30.00;99.90;;;;;;5023054;28;20232;-71
2022/06/30 06:17:20;;;;;;;3.95;3.55;;;29.20;99.90;;;;;;5022880;28;20213;-71
2022/06/30 06:19:45;;;;;;;4.88;3.65;;;28.30;99.90;;;;;;5019007;28;20208;-70
2022/06/30 06:22:11;;;;;;;9.65;4.50;;;27.50;99.90;;;;;;5028289;28;20208;-70
2022/06/30 06:24:36;;;;;;;5.32;4.43;;;26.50;99.90;;;;;;5013267;28;20215;-70
2022/06/30 06:27:02;;;;;;;5.25;3.90;;;26.00;99.90;;;;;;5031101;28;20295;-71
2022/06/30 06:29:28;;;;;;;4.82;4.28;;;25.70;99.90;;;;;;5012426;28;20630;-70
2022/06/30 06:31:53;;;;;;;6.05;4.53;;;25.20;99.90;;;;;;5013370;28;20220;-71
2022/06/30 06:34:19;;;;;;;6.15;4.47;;;24.80;99.90;;;;;;5030763;28;20582;-70
2022/06/30 06:36:44;;;;;;;5.07;4.55;;;24.60;99.90;;;;;;5012477;28;20246;-69
2022/06/30 06:39:10;;;;;;;7.55;4.47;;;24.40;99.90;;;;;;5031123;28;20298;-70
2022/06/30 06:41:36;;;;;;;7.18;4.60;;;24.20;99.90;;;;;;5012609;28;20244;-70
2022/06/30 06:44:01;;;;;;;6.43;4.68;;;24.20;99.90;;;;;;5030836;28;20239;-71
2022/06/30 06:46:27;;;;;;;9.48;4.60;;;24.20;99.90;;;;;;5012787;28;20219;-70
2022/06/30 06:49:00;;;;;;;6.68;4.85;;;24.10;99.90;;;;;;5030171;28;20534;-71
2022/06/30 06:51:27;;;;;;;4.95;4.32;;;24.00;99.90;;;;;;5031032;28;20238;-70
2022/06/30 06:53:53;;;;;;;8.68;5.30;;;24.00;99.90;;;;;;5030190;28;20223;-71
2022/06/30 06:56:18;;;;;;;6.70;4.78;;;24.00;99.90;;;;;;5030615;28;20201;-71
2022/06/30 06:58:44;;;;;;;9.85;5.38;;;23.90;99.90;;;;;;5029398;28;20212;-71
2022/06/30 07:01:10;;;;;;;7.38;5.68;;;23.90;99.90;;;;;;5012150;28;20303;-71
2022/06/30 07:03:35;;;;;;;5.93;5.32;;;23.90;99.90;;;;;;5023157;28;20299;-72
2022/06/30 07:06:01;;;;;;;8.15;5.53;;;23.80;99.90;;;;;;5012361;28;20223;-70
2022/06/30 07:08:26;;;;;;;10.15;5.65;;;23.70;99.90;;;;;;5024120;28;20215;-71
2022/06/30 07:10:55;;;;;;;9.63;6.78;;;23.70;99.90;;;;;;5030424;28;20215;-71
2022/06/30 07:13:20;;;;;;;7.85;5.30;;;23.60;99.90;;;;;;5029590;28;20216;-73
2022/06/30 07:15:46;;;;;;;6.78;4.68;;;23.50;99.90;;;;;;5030517;28;20602;-71
2022/06/30 07:18:12;;;;;;;9.13;6.70;;;23.50;99.90;;;;;;5029993;28;20208;-71
2022/06/30 07:20:37;;;;;;;6.45;5.55;;;23.30;99.90;;;;;;5011533;28;20216;-71
2022/06/30 07:23:03;;;;;;;6.53;5.22;;;23.30;99.90;;;;;;5031315;28;20595;-72
2022/06/30 07:25:29;;;;;;;7.05;5.78;;;23.30;99.90;;;;;;5033842;28;20212;-72
2022/06/30 07:27:54;;;;;;;6.25;5.65;;;23.30;99.90;;;;;;5015765;28;20176;-73
2022/06/30 07:30:20;;;;;;;9.18;6.90;;;23.30;99.90;;;;;;5033636;28;20220;-72
2022/06/30 07:32:45;;;;;;;8.65;6.50;;;23.60;99.90;;;;;;5033437;28;20258;-72
2022/06/30 07:35:11;;;;;;;8.77;6.78;;;23.80;99.90;;;;;;5033699;28;20220;-70
2022/06/30 07:37:40;;;;;;;10.50;6.72;;;24.20;99.90;;;;;;5033536;28;20219;-70
2022/06/30 07:40:07;;;;;;;9.27;5.88;;;25.20;99.90;;;;;;5033023;28;20220;-71
2022/06/30 07:42:33;;;;;;;8.65;5.50;;;25.30;99.90;;;;;;5033809;28;20567;-70
2022/06/30 07:44:59;;;;;;;9.00;6.28;;;25.60;99.90;;;;;;5033559;28;20212;-70
2022/06/30 07:47:25;;;;;;;10.10;6.38;;;26.10;99.90;;;;;;5015888;28;20227;-71
2022/06/30 07:49:51;;;;;;;8.07;5.80;;;26.90;99.90;;;;;;5033413;28;20235;-71
2022/06/30 07:52:16;;;;;;;8.52;6.45;;;27.60;99.90;;;;;;5015644;28;20235;-71
2022/06/30 07:54:42;;;;;;;11.55;7.57;;;28.00;99.90;;;;;;5033460;28;20211;-72
2022/06/30 07:57:08;;;;;;;6.50;5.57;;;28.50;99.90;;;;;;5028555;28;20238;-76
2022/06/30 07:59:33;;;;;;;7.30;5.70;;;29.80;99.90;;;;;;5028748;28;20221;-75
2022/06/30 08:02:00;;;;;;;6.10;5.50;;;30.60;99.90;;;;;;5012200;28;20568;-74
2022/06/30 08:04:26;;;;;;;6.13;4.82;;;32.20;99.90;;;;;;5015439;28;20242;-75
2022/06/30 08:06:52;;;;;;;6.45;4.93;;;33.90;99.90;;;;;;5033442;28;20207;-78
2022/06/30 08:09:17;;;;;;;5.80;5.20;;;34.80;99.90;;;;;;5033960;28;20172;-77
2022/06/30 08:11:43;;;;;;;6.32;4.82;;;35.60;99.90;;;;;;5033184;28;20696;-75
2022/06/30 08:14:08;;;;;;;5.22;4.72;;;35.80;99.90;;;;;;5033327;28;20223;-74
2022/06/30 08:16:34;;;;;;;5.57;5.18;;;36.40;99.90;;;;;;5026990;28;20223;-74
2022/06/30 08:19:00;;;;;;;6.75;5.53;;;36.00;99.90;;;;;;5032980;28;20206;-74
2022/06/30 08:21:26;;;;;;;6.20;5.63;;;35.00;99.90;;;;;;5015796;28;20223;-74
2022/06/30 08:23:51;;;;;;;6.43;5.20;;;34.90;99.90;;;;;;5033407;28;20688;-74
2022/06/30 08:26:17;;;;;;;5.70;5.20;;;35.10;99.90;;;;;;5015498;28;20239;-73
2022/06/30 08:28:43;;;;;;;11.18;6.80;;;35.10;99.90;;;;;;5012178;28;20209;-76
2022/06/30 08:31:08;;;;;;;9.38;6.18;;;36.50;99.90;;;;;;5028082;28;20220;-75
2022/06/30 08:33:34;;;;;;;7.40;5.70;;;37.10;99.90;;;;;;5033703;28;20641;-72
2022/06/30 08:35:59;;;;;;;6.20;5.50;;;36.20;99.90;;;;;;5032368;28;20203;-73
2022/06/30 08:38:25;;;;;;;6.30;5.20;;;36.00;99.90;;;;;;5032427;28;20579;-73
2022/06/30 08:43:35;;;;;;;6.88;5.80;;;33.90;99.90;;;;;;5031354;28;20333;-74
2022/06/30 08:46:01;;;;;;;8.55;5.25;;;33.90;99.90;;;;;;5032573;28;20306;-75
2022/06/30 08:48:28;;;;;;;8.07;5.78;;;33.30;99.90;;;;;;5032455;28;20176;-75
2022/06/30 08:51:05;;;;;;;5.97;5.45;;;32.90;99.90;;;;;;5029820;28;20817;-71
2022/06/30 08:53:38;;;;;;;7.32;5.20;;;32.50;99.90;;;;;;5024506;28;20298;-71
2022/06/30 08:56:07;;;;;;;8.43;5.47;;;32.00;99.90;;;;;;5018180;28;20216;-71
2022/06/30 08:58:34;;;;;;;8.13;7.15;;;31.50;99.90;;;;;;5029526;28;20223;-71
2022/06/30 09:01:00;;;;;;;6.85;6.18;;;31.10;99.90;;;;;;5009586;28;20779;-71
2022/06/30 09:03:25;;;;;;;6.45;5.85;;;30.40;99.90;;;;;;5030066;28;20227;-71
2022/06/30 09:05:51;;;;;;;11.48;8.43;;;29.60;99.90;;;;;;5014438;28;20211;-71
2022/06/30 09:08:18;;;;;;;11.55;8.77;;;29.70;99.90;;;;;;5032434;28;20227;-70
2022/06/30 09:10:48;;;;;;;13.50;10.95;;;30.40;99.90;;;;;;5012465;28;20207;-72
2022/06/30 09:13:13;;;;;;;9.43;7.47;;;31.00;99.90;;;;;;5032119;28;20215;-71
2022/06/30 09:15:39;;;;;;;11.00;6.90;;;31.40;99.90;;;;;;5032417;28;20183;-71
2022/06/30 09:18:06;;;;;;;10.25;8.13;;;30.70;99.90;;;;;;5032003;28;20299;-70
2022/06/30 09:20:39;;;;;;;8.65;7.57;;;30.40;99.90;;;;;;5032067;28;20200;-70
2022/06/30 09:23:21;;;;;;;8.38;6.93;;;29.80;99.90;;;;;;5032384;28;20266;-70
2022/06/30 09:25:55;;;;;;;7.78;6.57;;;29.20;99.90;;;;;;5032765;28;20612;-71
2022/06/30 09:28:47;;;;;;;9.30;7.18;;;28.60;99.90;;;;;;5030232;28;20214;-75
2022/06/30 09:31:14;;;;;;;8.27;6.72;;;28.50;99.90;;;;;;5027685;28;20216;-70
2022/06/30 09:33:44;;;;;;;6.80;5.82;;;28.10;99.90;;;;;;5032528;28;20186;-71
2022/06/30 09:36:22;;;;;;;20.95;17.77;;;27.80;99.90;;;;;;5014669;28;20219;-71
2022/06/30 09:39:08;;;;;;;8.50;7.40;;;28.60;99.90;;;;;;5031510;28;20233;-72
2022/06/30 09:41:39;;;;;;;9.15;7.45;;;29.70;99.90;;;;;;5014179;28;20204;-72
2022/06/30 09:44:20;;;;;;;14.77;7.80;;;29.40;99.90;;;;;;5031833;28;20231;-70
2022/06/30 09:46:59;;;;;;;9.18;7.38;;;28.60;99.90;;;;;;5027688;28;20213;-71
2022/06/30 09:49:29;;;;;;;9.57;7.30;;;28.30;99.90;;;;;;5020918;28;20723;-73
2022/06/30 09:51:54;;;;;;;9.20;6.65;;;28.40;99.90;;;;;;5021233;28;20209;-72
2022/06/30 09:54:20;;;;;;;7.55;6.45;;;28.60;99.90;;;;;;5021570;28;20235;-72
2022/06/30 09:57:06;;;;;;;10.05;6.53;;;28.20;99.90;;;;;;5029677;28;20287;-75
2022/06/30 09:59:34;;;;;;;8.68;7.78;;;28.60;99.90;;;;;;5032727;28;20303;-75
2022/06/30 10:01:59;;;;;;;8.10;6.47;;;29.10;99.90;;;;;;5031376;28;20219;-75
2022/06/30 10:04:26;;;;;;;7.30;6.05;;;28.90;99.90;;;;;;5013510;28;20693;-75
2022/06/30 10:06:52;;;;;;;7.45;6.60;;;29.10;99.90;;;;;;5031453;28;20180;-75
2022/06/30 10:09:19;;;;;;;7.38;6.45;;;28.60;99.90;;;;;;5034728;28;20183;-74
2022/06/30 10:11:50;;;;;;;6.03;5.53;;;28.80;99.90;;;;;;5029324;28;20303;-71
2022/06/30 10:14:16;;;;;;;7.00;6.40;;;29.10;99.90;;;;;;5029447;28;20220;-71
2022/06/30 10:16:43;;;;;;;6.70;5.90;;;29.40;99.90;;;;;;5011649;28;20200;-71
2022/06/30 10:19:10;;;;;;;8.55;6.38;;;29.80;99.90;;;;;;5010559;28;20220;-71
2022/06/30 10:21:40;;;;;;;10.02;6.53;;;29.70;99.90;;;;;;5030772;28;20232;-71
2022/06/30 10:24:06;;;;;;;12.05;10.73;;;29.60;99.90;;;;;;5031864;28;20211;-71
2022/06/30 10:29:18;;;;;;;8.43;6.60;;;29.10;99.90;;;;;;5030670;28;20212;-71
2022/06/30 10:31:51;;;;;;;7.07;6.28;;;29.40;99.90;;;;;;5031149;28;20311;-71
2022/06/30 10:34:22;;;;;;;16.25;13.00;;;29.20;99.90;;;;;;5031288;28;20211;-72
2022/06/30 10:37:10;;;;;;;7.47;6.20;;;29.30;99.90;;;;;;5031634;28;20267;-71
2022/06/30 10:39:47;;;;;;;10.05;7.15;;;29.50;99.90;;;;;;5023782;28;20216;-71
2022/06/30 10:42:49;;;;;;;12.23;11.00;;;29.20;99.90;;;;;;5031882;28;20207;-71
2022/06/30 10:45:34;;;;;;;7.47;6.00;;;29.60;99.90;;;;;;5006748;28;20200;-71
2022/06/30 10:48:06;;;;;;;7.32;6.00;;;30.10;99.90;;;;;;5013403;28;20231;-71
2022/06/30 10:50:40;;;;;;;10.68;6.82;;;29.90;99.90;;;;;;5030612;28;20242;-70
2022/06/30 10:53:09;;;;;;;6.65;5.80;;;29.50;99.90;;;;;;5031289;28;20215;-73
2022/06/30 10:55:49;;;;;;;8.18;6.22;;;29.10;99.90;;;;;;5030810;28;20254;-71
2022/06/30 10:58:15;;;;;;;8.90;8.00;;;29.20;99.90;;;;;;5029863;28;20212;-71
2022/06/30 11:00:55;;;;;;;9.63;7.30;;;29.00;99.90;;;;;;5030702;28;20185;-71
2022/06/30 11:03:30;;;;;;;8.27;7.47;;;29.40;99.90;;;;;;5031091;28;20249;-71
2022/06/30 11:05:56;;;;;;;8.25;7.05;;;29.40;99.90;;;;;;5012885;28;20200;-71
2022/06/30 11:08:58;;;;;;;7.40;6.47;;;28.90;99.90;;;;;;5030286;28;20258;-71
2022/06/30 11:11:23;;;;;;;8.98;6.43;;;28.10;99.90;;;;;;5029937;28;20263;-72
2022/06/30 11:14:03;;;;;;;7.28;6.57;;;28.00;99.90;;;;;;5012955;28;20216;-70
2022/06/30 11:16:31;;;;;;;11.07;7.10;;;28.00;99.90;;;;;;5022057;28;20692;-71
2022/06/30 11:18:57;;;;;;;8.20;7.38;;;27.80;99.90;;;;;;5030150;28;20214;-71
2022/06/30 11:21:23;;;;;;;15.73;13.10;;;27.80;99.90;;;;;;5030523;28;20193;-71
2022/06/30 11:23:50;;;;;;;8.70;7.80;;;27.90;99.90;;;;;;5030532;28;20204;-71
2022/06/30 11:29:04;;;;;;;9.10;8.10;;;28.30;99.90;;;;;;5029612;28;20210;-71
2022/06/30 11:31:35;;;;;;;12.80;8.68;;;28.40;99.90;;;;;;5012367;28;20230;-71
2022/06/30 11:34:05;;;;;;;32.10;10.90;;;28.30;99.90;;;;;;5030431;28;20633;-71
2022/06/30 11:36:31;;;;;;;32.33;12.15;;;28.70;99.90;;;;;;5013325;28;20603;-71
2022/06/30 11:39:00;;;;;;;13.85;8.35;;;29.00;99.90;;;;;;5029983;28;20211;-72
2022/06/30 11:44:13;;;;;;;12.35;10.80;;;28.80;99.90;;;;;;5030490;28;20254;-71
2022/06/30 11:46:54;;;;;;;8.65;7.32;;;29.00;99.90;;;;;;5030070;28;20206;-71
2022/06/30 11:49:21;;;;;;;9.23;7.93;;;29.50;99.90;;;;;;5030209;28;20735;-71
2022/06/30 11:51:47;;;;;;;8.23;7.43;;;29.70;99.90;;;;;;5030211;28;20196;-71
2022/06/30 11:54:14;;;;;;;9.18;7.75;;;29.30;99.90;;;;;;5012917;28;20180;-71
2022/06/30 11:56:51;;;;;;;11.02;7.65;;;29.20;99.90;;;;;;5030221;28;20299;-72
2022/06/30 11:59:18;;;;;;;8.98;8.18;;;29.10;99.90;;;;;;5029839;28;20733;-72
2022/06/30 12:02:00;;;;;;;10.48;8.15;;;29.10;99.90;;;;;;5029961;28;20281;-71
2022/06/30 12:04:26;;;;;;;9.77;7.30;;;29.20;99.90;;;;;;5012499;28;20204;-71
2022/06/30 12:06:52;;;;;;;11.05;8.30;;;29.30;99.90;;;;;;5013000;28;20187;-71
2022/06/30 12:09:17;;;;;;;17.45;9.68;;;29.30;99.90;;;;;;5030188;28;20184;-71
2022/06/30 12:11:45;;;;;;;10.77;9.15;;;28.70;99.90;;;;;;5050559;22;21072;-74
2022/06/30 12:14:11;;;;;;;8.50;7.60;;;28.90;99.90;;;;;;5037665;28;20789;-74
2022/06/30 12:16:37;;;;;;;10.68;8.65;;;29.00;99.90;;;;;;5055468;28;20242;-73
2022/06/30 12:19:03;;;;;;;12.57;8.27;;;28.90;99.90;;;;;;5055457;28;20692;-74
2022/06/30 12:21:29;;;;;;;11.52;9.32;;;29.00;99.90;;;;;;5056085;28;20175;-74
2022/06/30 12:23:55;;;;;;;10.25;9.18;;;29.20;99.90;;;;;;5054583;28;20215;-74
2022/06/30 12:26:21;;;;;;;9.75;8.75;;;29.10;99.90;;;;;;5055945;28;20211;-74
2022/06/30 12:28:51;;;;;;;14.15;8.88;;;28.80;99.90;;;;;;5037035;28;20711;-74
2022/06/30 12:31:27;;;;;;;10.07;8.07;;;28.70;99.90;;;;;;5054323;28;20204;-74
2022/06/30 12:33:54;;;;;;;9.75;7.50;;;28.70;99.90;;;;;;5046329;28;20186;-74
2022/06/30 12:36:21;;;;;;;9.85;8.00;;;28.80;99.90;;;;;;5059328;28;20168;-74
2022/06/30 12:38:47;;;;;;;12.98;11.57;;;28.90;99.90;;;;;;5057150;28;20224;-74
2022/06/30 12:41:14;;;;;;;13.68;12.25;;;28.90;99.90;;;;;;5043457;28;20204;-74
2022/06/30 12:43:47;;;;;;;9.10;8.18;;;29.10;99.90;;;;;;5058624;28;20295;-74
2022/06/30 12:46:14;;;;;;;10.02;8.85;;;29.30;99.90;;;;;;5058362;28;20207;-73
2022/06/30 12:48:54;;;;;;;10.82;9.38;;;29.20;99.90;;;;;;5062077;28;20241;-74
2022/06/30 12:51:28;;;;;;;11.65;10.02;;;29.10;99.90;;;;;;5057976;28;20218;-74
2022/06/30 12:54:14;;;;;;;11.32;9.07;;;28.90;99.90;;;;;;5056985;28;20223;-73
2022/06/30 12:56:41;;;;;;;10.80;8.93;;;28.50;99.90;;;;;;5052264;28;20559;-74
2022/06/30 12:59:12;;;;;;;14.13;10.43;;;28.40;99.90;;;;;;5034393;28;20696;-75
2022/06/30 13:01:41;;;;;;;13.77;9.90;;;28.30;99.90;;;;;;5034778;28;20203;-75
2022/06/30 13:04:08;;;;;;;10.63;9.63;;;28.30;99.90;;;;;;5052201;28;20226;-76